Skip to main content.
Our real time weather data display below is updated continuously via our 24/7 live data feed.
 TIME   TEMPERATURE   WINDSPEED   DIRECTION   HUMIDITY   BAROMETER   RAINFALL 
8:10 20.0°C (68.0°F) 33.3 kmh (20.7 mph) WNW 72% 1010.8hPa (29.85 inHg) 0.0mm (0.00 in.)
7:10 20.0°C (68.0 °F) 27.8 kmh (17.3 mph) NW 72% 1010.8hPa (29.85 inHg) 0.0mm (0.00 in.)
6:10 19.0°C (66.2 °F) 33.3 kmh (20.7 mph) NW 77% 1010.8hPa (29.85 inHg) 0.0mm (0.00 in.)
5:10 19.0°C (66.2 °F) 29.6 kmh (18.4 mph) NW 77% 1010.2hPa (29.83 inHg) 0.0mm (0.00 in.)
4:10 19.0°C (66.2 °F) 31.5 kmh (19.6 mph) NW 77% 1010.2hPa (29.83 inHg) 0.0mm (0.00 in.)
3:10 19.0°C (66.2 °F) 31.5 kmh (19.6 mph) NW 77% 1010.2hPa (29.83 inHg) 0.0mm (0.00 in.)
2:10 20.0°C (68.0 °F) 35.2 kmh (21.9 mph) NW 68% 1010.2hPa (29.83 inHg) 0.0mm (0.00 in.)
1:10 20.0°C (68.0 °F) 35.2 kmh (21.9 mph) NW 77% 1010.2hPa (29.83 inHg) 0.0mm (0.00 in.)
0:10 20.0°C (68.0 °F) 27.8 kmh (17.3 mph) WNW 77% 1010.2hPa (29.83 inHg) 0.0mm (0.00 in.)
23:10 20.0°C (68.0 °F) 35.2 kmh (21.9 mph) NW 77% 1010.2hPa (29.83 inHg) 0.0mm (0.00 in.)
22:10 20.0°C (68.0 °F) 37.0 kmh (23.0 mph) NW 77% 1009.1hPa (29.80 inHg) 0.0mm (0.00 in.)
21:10 20.0°C (68.0 °F) 42.6 kmh (26.5 mph) WNW 77% 1007.1hPa (29.74 inHg) 0.0mm (0.00 in.)
20:10 21.0°C (69.8 °F) 40.7 kmh (25.3 mph) WNW 73% 1007.1hPa (29.74 inHg) 0.0mm (0.00 in.)
19:10 22.0°C (71.6 °F) 46.3 kmh (28.8 mph) NW 68% 1005.1hPa (29.68 inHg) 0.0mm (0.00 in.)
18:10 23.0°C (73.4 °F) 50.0 kmh (31.1 mph) NW 64% 1006.1hPa (29.71 inHg) 0.0mm (0.00 in.)
17:10 24.0°C (75.2 °F) 48.2 kmh (29.9 mph) NW 57% 1005.1hPa (29.68 inHg) 0.0mm (0.00 in.)
16:10 24.0°C (75.2 °F) 42.6 kmh (26.5 mph) NNW 64% 1005.1hPa (29.68 inHg) 0.0mm (0.00 in.)
15:10 22.0°C (71.6 °F) 51.9 kmh (32.2 mph) NNW 68% 1004.1hPa (29.65 inHg) 0.0mm (0.00 in.)
14:10 25.0°C (77.0 °F) 24.1 kmh (15.0 mph) NNE 69% 1003.0hPa (29.62 inHg) 0.0mm (0.00 in.)
13:10 23.0°C (73.4 °F) 31.5 kmh (19.6 mph) NNE 78% 1002.0hPa (29.59 inHg) 0.0mm (0.00 in.)
12:10 24.0°C (75.2 °F) 27.8 kmh (17.3 mph) NNE 73% 1002.0hPa (29.59 inHg) 0.0mm (0.00 in.)
11:10 24.0°C (75.2 °F) 20.4 kmh (12.7 mph) NNE 78% 1003.0hPa (29.62 inHg) 0.0mm (0.00 in.)
10:10 24.0°C (75.2 °F) 9.3 kmh (5.8 mph) NE 73% 1004.1hPa (29.65 inHg) 0.0mm (0.00 in.)
9:10 23.0°C (73.4 °F) 24.1 kmh (15.0 mph) E 78% 1003.0hPa (29.62 inHg) 0.0mm (0.00 in.)